Time;durP1;ratioP1;P1;durP2;ratioP2;P2;SDS_P1;SDS_P2;PMS_P1;PMS_P2;Temp;Humidity;BMP_temperature;BMP_pressure;BME280_temperature;BME280_humidity;BME280_pressure;Samples;Min_cycle;Max_cycle;Signal;HPM_P1;HPM_P2
2022/09/28 00:01:26;;;;;;;1.48;0.82;;;11.30;99.90;;;;;;5059518;28;20221;-71
2022/09/28 00:03:57;;;;;;;1.83;0.80;;;11.30;99.90;;;;;;5056693;28;20185;-70
2022/09/28 00:06:26;;;;;;;1.30;0.82;;;11.30;99.90;;;;;;5065848;28;20204;-69
2022/09/28 00:08:52;;;;;;;1.52;0.80;;;11.30;99.90;;;;;;5059199;28;20192;-70
2022/09/28 00:11:19;;;;;;;1.10;0.80;;;11.20;99.90;;;;;;5061008;28;20236;-69
2022/09/28 00:13:50;;;;;;;0.80;0.50;;;11.20;99.90;;;;;;5067984;28;20185;-70
2022/09/28 00:16:20;;;;;;;1.17;0.80;;;11.20;99.90;;;;;;5054804;28;20196;-68
2022/09/28 00:18:46;;;;;;;1.95;0.70;;;11.20;99.90;;;;;;5064752;28;20173;-70
2022/09/28 00:21:15;;;;;;;0.90;0.68;;;11.20;99.90;;;;;;5072624;28;20251;-70
2022/09/28 00:26:30;;;;;;;0.95;0.55;;;11.20;99.90;;;;;;5053943;28;20195;-70
2022/09/28 00:28:58;;;;;;;0.50;0.50;;;11.20;99.90;;;;;;5050560;28;20212;-70
2022/09/28 00:31:25;;;;;;;0.70;0.70;;;11.20;99.90;;;;;;5070058;28;20177;-70
2022/09/28 00:33:52;;;;;;;0.93;0.70;;;11.20;99.90;;;;;;5063869;28;20197;-71
2022/09/28 00:36:20;;;;;;;1.33;0.63;;;11.20;99.90;;;;;;5057520;28;20485;-70
2022/09/28 00:38:48;;;;;;;0.80;0.63;;;11.20;99.90;;;;;;5048639;28;20281;-70
2022/09/28 00:41:14;;;;;;;0.65;0.45;;;11.10;99.90;;;;;;5056750;28;20217;-70
2022/09/28 00:43:43;;;;;;;1.75;0.65;;;11.10;99.90;;;;;;5067613;28;20183;-70
2022/09/28 00:46:20;;;;;;;1.85;0.60;;;11.20;99.90;;;;;;5063516;28;20180;-69
2022/09/28 00:48:55;;;;;;;3.00;0.65;;;11.20;99.90;;;;;;5073803;28;20168;-70
2022/09/28 00:51:25;;;;;;;0.95;0.57;;;11.10;99.90;;;;;;5056687;28;20304;-70
2022/09/28 00:53:55;;;;;;;1.60;0.50;;;11.20;99.90;;;;;;5074113;28;20181;-70
2022/09/28 00:56:30;;;;;;;1.25;0.80;;;11.10;99.90;;;;;;5061698;28;20264;-69
2022/09/28 00:59:00;;;;;;;1.00;0.60;;;11.10;99.90;;;;;;5079248;28;20231;-69
2022/09/28 01:01:27;;;;;;;0.80;0.53;;;11.10;99.90;;;;;;5068915;28;20213;-69
2022/09/28 01:03:53;;;;;;;1.27;0.43;;;11.10;99.90;;;;;;5080373;28;20182;-68
2022/09/28 01:06:26;;;;;;;1.23;0.77;;;11.10;99.90;;;;;;5080579;28;20209;-69
2022/09/28 01:08:54;;;;;;;1.33;0.40;;;11.10;99.90;;;;;;5065730;28;20272;-70
2022/09/28 01:11:20;;;;;;;0.70;0.52;;;11.10;99.90;;;;;;5066049;28;20205;-69
2022/09/28 01:13:51;;;;;;;0.77;0.40;;;11.00;99.90;;;;;;5065612;28;20199;-69
2022/09/28 01:16:39;;;;;;;0.40;0.30;;;11.00;99.90;;;;;;5081183;28;20205;-69
2022/09/28 01:19:46;;;;;;;0.73;0.50;;;11.00;99.90;;;;;;5078664;28;20181;-69
2022/09/28 01:22:33;;;;;;;1.17;0.50;;;11.00;99.90;;;;;;5085029;28;20205;-70
2022/09/28 01:25:17;;;;;;;0.60;0.43;;;11.00;99.90;;;;;;5071258;28;20189;-70
2022/09/28 01:27:48;;;;;;;1.30;0.55;;;11.00;99.90;;;;;;5058068;28;20210;-70
2022/09/28 01:30:19;;;;;;;0.67;0.60;;;10.90;99.90;;;;;;5083807;28;20237;-70
2022/09/28 01:33:02;;;;;;;1.13;0.43;;;10.90;99.90;;;;;;5070217;28;20221;-70
2022/09/28 01:35:36;;;;;;;1.90;0.50;;;10.90;99.90;;;;;;5074890;28;20207;-70
2022/09/28 01:38:16;;;;;;;1.17;0.40;;;10.90;99.90;;;;;;5068348;28;20177;-69
2022/09/28 01:40:43;;;;;;;0.40;0.40;;;10.90;99.90;;;;;;5070702;28;20184;-70
2022/09/28 01:43:40;;;;;;;1.00;0.30;;;10.90;99.90;;;;;;5071870;28;20189;-70
2022/09/28 01:46:12;;;;;;;0.43;0.40;;;10.90;99.90;;;;;;5056239;28;20186;-70
2022/09/28 01:48:44;;;;;;;0.70;0.33;;;10.90;99.90;;;;;;5066520;28;20245;-70
2022/09/28 01:51:20;;;;;;;0.50;0.40;;;10.90;99.90;;;;;;5085074;28;20181;-70
2022/09/28 01:53:54;;;;;;;0.73;0.47;;;10.90;99.90;;;;;;5064211;28;20256;-69
2022/09/28 01:56:36;;;;;;;0.97;0.60;;;10.90;99.90;;;;;;5093010;28;20201;-72
2022/09/28 01:59:26;;;;;;;0.70;0.50;;;10.90;99.90;;;;;;5071205;28;20188;-69
2022/09/28 02:02:05;;;;;;;0.50;0.40;;;10.90;99.90;;;;;;5068529;28;20247;-70
2022/09/28 02:04:38;;;;;;;0.57;0.40;;;10.90;99.90;;;;;;5079193;28;20170;-70
2022/09/28 02:07:09;;;;;;;0.50;0.40;;;10.90;99.90;;;;;;5060283;28;20193;-70
2022/09/28 02:09:41;;;;;;;0.40;0.40;;;10.90;99.90;;;;;;5067982;28;20233;-70
2022/09/28 02:12:21;;;;;;;0.30;0.30;;;10.90;99.90;;;;;;5067223;28;20194;-70
2022/09/28 02:14:49;;;;;;;0.98;0.50;;;10.90;99.90;;;;;;5088050;28;20236;-70
2022/09/28 02:17:15;;;;;;;1.52;0.40;;;10.90;99.90;;;;;;5067717;28;20200;-68
2022/09/28 02:19:41;;;;;;;0.70;0.40;;;10.90;99.90;;;;;;5056797;28;20207;-70
2022/09/28 02:22:16;;;;;;;0.77;0.50;;;10.90;99.90;;;;;;5068941;28;20170;-69
2022/09/28 02:25:21;;;;;;;1.30;0.40;;;10.90;99.90;;;;;;5059766;28;20199;-70
2022/09/28 02:27:53;;;;;;;0.47;0.40;;;10.90;99.90;;;;;;5053583;28;20180;-70
2022/09/28 02:30:18;;;;;;;0.30;0.30;;;10.90;99.90;;;;;;5070448;28;20241;-70
2022/09/28 02:32:47;;;;;;;0.40;0.30;;;10.90;99.90;;;;;;5068071;28;20216;-70
2022/09/28 02:35:16;;;;;;;0.60;0.50;;;10.90;99.90;;;;;;5064461;28;20308;-70
2022/09/28 02:37:43;;;;;;;0.70;0.50;;;10.90;99.90;;;;;;5067930;28;20235;-70
2022/09/28 02:40:16;;;;;;;0.73;0.47;;;10.80;99.90;;;;;;5068071;28;20227;-70
2022/09/28 02:43:06;;;;;;;1.10;0.47;;;10.80;99.90;;;;;;5070407;28;20227;-69
2022/09/28 02:46:03;;;;;;;1.23;0.40;;;10.80;99.90;;;;;;5062049;28;20197;-72
2022/09/28 02:49:16;;;;;;;0.60;0.43;;;10.80;99.90;;;;;;5067026;28;20170;-70
2022/09/28 02:51:53;;;;;;;0.50;0.50;;;10.70;99.90;;;;;;5052567;28;20201;-71
2022/09/28 02:54:25;;;;;;;0.67;0.50;;;10.70;99.90;;;;;;5075533;28;20404;-72
2022/09/28 02:57:05;;;;;;;0.50;0.40;;;10.70;99.90;;;;;;5065970;28;20190;-69
2022/09/28 02:59:49;;;;;;;1.07;0.50;;;10.60;99.90;;;;;;5060275;28;20264;-68
2022/09/28 03:02:37;;;;;;;0.87;0.50;;;10.60;99.90;;;;;;5080244;28;20197;-70
2022/09/28 03:05:18;;;;;;;1.20;0.57;;;10.60;99.90;;;;;;5065309;28;20201;-71
2022/09/28 03:08:27;;;;;;;0.53;0.40;;;10.60;99.90;;;;;;5079363;28;20201;-71
2022/09/28 03:11:01;;;;;;;0.90;0.40;;;10.50;99.90;;;;;;5019640;28;20178;-70
2022/09/28 03:13:27;;;;;;;0.70;0.50;;;10.50;99.90;;;;;;5025383;28;20197;-69
2022/09/28 03:16:10;;;;;;;1.73;0.50;;;10.50;99.90;;;;;;5051593;28;20227;-71
2022/09/28 03:18:35;;;;;;;0.53;0.50;;;10.50;99.90;;;;;;5086560;28;20204;-71
2022/09/28 03:21:05;;;;;;;0.60;0.53;;;10.50;99.90;;;;;;5065845;28;20196;-70
2022/09/28 03:23:33;;;;;;;0.63;0.50;;;10.50;99.90;;;;;;5051329;28;20269;-71
2022/09/28 03:25:59;;;;;;;1.43;0.57;;;10.50;99.90;;;;;;5073195;28;20174;-70
2022/09/28 03:28:25;;;;;;;0.90;0.50;;;10.50;99.90;;;;;;5065180;28;20188;-71
2022/09/28 03:30:51;;;;;;;0.67;0.50;;;10.50;99.90;;;;;;5254469;22;20220;-70
2022/09/28 03:33:18;;;;;;;0.50;0.50;;;10.50;99.90;;;;;;5100374;28;20259;-71
2022/09/28 03:35:49;;;;;;;0.77;0.50;;;10.60;99.90;;;;;;5099899;28;20202;-71
2022/09/28 03:38:18;;;;;;;1.23;0.60;;;10.60;99.90;;;;;;5096968;28;20213;-71
2022/09/28 03:40:51;;;;;;;1.43;0.73;;;10.60;99.90;;;;;;5079848;28;20265;-71
2022/09/28 03:43:16;;;;;;;1.13;0.90;;;10.60;99.90;;;;;;5079116;28;20259;-71
2022/09/28 03:45:49;;;;;;;2.63;1.00;;;10.60;99.90;;;;;;5082226;28;20204;-72
2022/09/28 03:48:15;;;;;;;0.90;0.60;;;10.60;99.90;;;;;;5085224;28;20184;-72
2022/09/28 03:50:43;;;;;;;1.53;0.70;;;10.60;99.90;;;;;;5099392;28;20213;-73
2022/09/28 03:53:10;;;;;;;1.17;0.83;;;10.70;99.90;;;;;;5097435;28;20176;-69
2022/09/28 03:55:37;;;;;;;0.83;0.70;;;10.60;99.90;;;;;;5100573;28;20183;-71
2022/09/28 03:58:05;;;;;;;0.43;0.40;;;10.60;99.90;;;;;;5101807;28;20211;-71
2022/09/28 04:00:31;;;;;;;1.60;0.80;;;10.60;99.90;;;;;;5102279;28;20227;-71
2022/09/28 04:02:56;;;;;;;0.87;0.50;;;10.60;99.90;;;;;;5082822;28;20193;-71
2022/09/28 04:05:22;;;;;;;1.80;0.60;;;10.60;99.90;;;;;;5079822;28;20173;-71
2022/09/28 04:07:52;;;;;;;0.93;0.60;;;10.60;99.90;;;;;;5079656;28;20240;-71
2022/09/28 04:10:18;;;;;;;0.90;0.70;;;10.60;99.90;;;;;;5083936;28;20204;-72
2022/09/28 04:12:44;;;;;;;0.90;0.70;;;10.60;99.90;;;;;;5103087;28;20172;-72
2022/09/28 04:15:10;;;;;;;1.80;0.60;;;10.60;99.90;;;;;;5097369;28;20257;-70
2022/09/28 04:17:35;;;;;;;1.20;0.80;;;10.60;99.90;;;;;;5087721;28;20181;-71
2022/09/28 04:20:02;;;;;;;0.70;0.70;;;10.60;99.90;;;;;;5103352;28;20262;-71
2022/09/28 04:22:28;;;;;;;2.17;0.80;;;10.60;99.90;;;;;;5097283;28;20239;-70
2022/09/28 04:24:54;;;;;;;2.40;1.23;;;10.60;99.90;;;;;;5099817;28;20207;-69
2022/09/28 04:30:03;;;;;;;2.40;0.80;;;10.50;99.90;;;;;;5097310;28;20289;-70
2022/09/28 04:32:34;;;;;;;1.85;0.85;;;10.50;99.90;;;;;;5099632;28;20275;-71
2022/09/28 04:35:02;;;;;;;1.27;0.80;;;10.40;99.90;;;;;;5102934;28;20206;-71
2022/09/28 04:37:30;;;;;;;4.77;3.40;;;10.40;99.90;;;;;;5095380;28;20176;-71
2022/09/28 04:39:55;;;;;;;2.87;1.70;;;10.40;99.90;;;;;;5106148;28;20196;-70
2022/09/28 04:42:21;;;;;;;1.50;1.20;;;10.40;99.90;;;;;;5094672;28;20263;-70
2022/09/28 04:44:46;;;;;;;1.37;1.13;;;10.30;99.90;;;;;;5101152;28;20193;-70
2022/09/28 04:47:14;;;;;;;1.87;1.10;;;10.30;99.90;;;;;;5098616;28;20261;-72
2022/09/28 04:49:42;;;;;;;1.10;0.90;;;10.30;99.90;;;;;;5098586;28;20208;-70
2022/09/28 04:52:10;;;;;;;1.70;1.00;;;10.30;99.90;;;;;;5083737;28;20215;-72
2022/09/28 04:54:36;;;;;;;1.40;0.90;;;10.30;99.90;;;;;;5100850;28;20168;-71
2022/09/28 04:57:04;;;;;;;3.50;0.97;;;10.30;99.90;;;;;;5100034;28;20183;-69
2022/09/28 04:59:33;;;;;;;2.10;1.27;;;10.30;99.90;;;;;;5095173;28;20164;-71
2022/09/28 05:01:58;;;;;;;2.20;1.50;;;10.30;99.90;;;;;;5088122;28;20202;-71
2022/09/28 05:04:27;;;;;;;1.90;1.50;;;10.30;99.90;;;;;;5085265;28;20313;-73
2022/09/28 05:06:52;;;;;;;3.87;1.60;;;10.30;99.90;;;;;;5098076;28;20180;-71
2022/09/28 05:09:18;;;;;;;2.40;1.40;;;10.30;99.90;;;;;;5102491;28;20219;-73
2022/09/28 05:11:43;;;;;;;2.60;1.50;;;10.30;99.90;;;;;;5101116;28;20184;-72
2022/09/28 05:14:12;;;;;;;2.50;1.50;;;10.30;99.90;;;;;;5089453;28;20196;-73
2022/09/28 05:16:40;;;;;;;2.40;1.37;;;10.30;99.90;;;;;;5086679;28;20176;-69
2022/09/28 05:19:09;;;;;;;2.20;1.50;;;10.30;99.90;;;;;;5098733;28;20180;-72
2022/09/28 05:21:34;;;;;;;1.70;1.20;;;10.30;99.90;;;;;;5101461;28;20306;-72
2022/09/28 05:24:04;;;;;;;2.00;1.53;;;10.30;99.90;;;;;;5103702;28;20191;-71
2022/09/28 05:26:30;;;;;;;2.83;1.47;;;10.30;99.90;;;;;;5098847;28;20204;-73
2022/09/28 05:28:57;;;;;;;2.27;1.47;;;10.40;99.90;;;;;;5092067;28;20194;-72
2022/09/28 05:31:25;;;;;;;2.03;1.20;;;10.30;99.90;;;;;;5095626;28;20223;-72
2022/09/28 05:33:54;;;;;;;1.73;1.40;;;10.40;99.90;;;;;;5077527;28;20202;-73
2022/09/28 05:36:22;;;;;;;2.23;1.50;;;10.40;99.90;;;;;;5090990;28;20180;-70
2022/09/28 05:38:48;;;;;;;1.97;1.40;;;10.40;99.90;;;;;;5099169;28;20195;-73
2022/09/28 05:41:13;;;;;;;1.70;1.60;;;10.40;99.90;;;;;;5098162;28;20207;-74
2022/09/28 05:43:42;;;;;;;1.60;1.40;;;10.40;99.90;;;;;;5083577;28;20193;-73
2022/09/28 05:46:10;;;;;;;2.40;1.40;;;10.50;99.90;;;;;;5094754;28;20180;-72
2022/09/28 05:48:38;;;;;;;2.13;1.40;;;10.40;99.90;;;;;;5101160;28;20196;-72
2022/09/28 05:51:04;;;;;;;1.97;1.40;;;10.40;99.90;;;;;;5099655;28;20534;-72
2022/09/28 05:53:29;;;;;;;2.27;1.77;;;10.40;99.90;;;;;;5082896;28;20270;-73
2022/09/28 05:55:58;;;;;;;3.17;2.00;;;10.50;99.90;;;;;;5089188;28;20236;-73
2022/09/28 05:58:24;;;;;;;2.20;1.77;;;10.50;99.90;;;;;;5100125;28;20180;-72
2022/09/28 06:00:59;;;;;;;1.97;1.77;;;10.50;99.90;;;;;;5094289;28;20275;-73
2022/09/28 06:03:27;;;;;;;1.60;1.50;;;10.50;99.90;;;;;;5085730;28;20163;-73
2022/09/28 06:05:53;;;;;;;1.70;1.60;;;10.50;99.90;;;;;;5099191;28;20196;-72
2022/09/28 06:08:19;;;;;;;2.47;2.10;;;10.60;99.90;;;;;;5099597;28;20180;-72
2022/09/28 06:10:44;;;;;;;2.03;1.73;;;10.50;99.90;;;;;;5100473;28;20203;-73
2022/09/28 06:13:12;;;;;;;2.00;1.80;;;10.50;99.90;;;;;;5099074;28;20183;-73
2022/09/28 06:15:43;;;;;;;2.80;1.87;;;10.50;99.90;;;;;;5098455;28;20257;-73
2022/09/28 06:18:13;;;;;;;2.00;1.80;;;10.60;99.90;;;;;;5098244;28;20177;-73
2022/09/28 06:20:40;;;;;;;2.70;1.80;;;10.60;99.90;;;;;;5100832;28;20191;-73
2022/09/28 06:23:06;;;;;;;4.13;1.80;;;10.60;99.90;;;;;;5096799;28;20181;-73
2022/09/28 06:25:32;;;;;;;2.60;1.63;;;10.60;99.90;;;;;;5081292;28;20239;-71
2022/09/28 06:28:03;;;;;;;2.67;1.80;;;10.60;99.90;;;;;;5100184;28;20234;-73
2022/09/28 06:30:32;;;;;;;2.60;1.90;;;10.50;99.90;;;;;;5098194;28;20191;-71
2022/09/28 06:32:59;;;;;;;1.90;1.60;;;10.60;99.90;;;;;;5098715;28;20203;-73
2022/09/28 06:35:26;;;;;;;2.07;1.80;;;10.60;99.90;;;;;;5096898;28;20196;-73
2022/09/28 06:37:52;;;;;;;2.73;1.70;;;10.60;99.90;;;;;;5093046;28;20207;-72
2022/09/28 06:40:20;;;;;;;3.03;1.70;;;10.60;99.90;;;;;;5092934;28;20207;-74
2022/09/28 06:43:15;;;;;;;3.43;1.80;;;10.70;99.90;;;;;;5100056;28;20200;-73
2022/09/28 06:45:45;;;;;;;2.03;1.83;;;10.70;99.90;;;;;;5085471;28;20251;-73
2022/09/28 06:48:13;;;;;;;2.43;1.80;;;10.60;99.90;;;;;;5080316;28;20201;-74
2022/09/28 06:50:40;;;;;;;2.93;1.67;;;10.70;99.90;;;;;;5080198;28;20176;-74
2022/09/28 06:53:08;;;;;;;2.73;1.70;;;10.60;99.90;;;;;;5080534;28;20258;-73
2022/09/28 06:55:37;;;;;;;1.97;1.70;;;10.70;99.90;;;;;;5084895;28;20176;-73
2022/09/28 06:58:09;;;;;;;3.83;1.95;;;10.70;99.90;;;;;;5099002;28;20176;-71
2022/09/28 07:00:38;;;;;;;2.23;1.80;;;10.70;99.90;;;;;;5101676;28;20257;-74
2022/09/28 07:03:06;;;;;;;1.93;1.67;;;10.80;99.90;;;;;;5100254;28;20176;-73
2022/09/28 07:05:35;;;;;;;3.22;1.70;;;10.80;99.90;;;;;;5097391;28;20172;-73
2022/09/28 07:08:02;;;;;;;2.22;1.83;;;10.90;99.90;;;;;;5090131;28;20179;-75
2022/09/28 07:10:32;;;;;;;2.17;1.70;;;10.90;99.90;;;;;;5092052;28;20203;-72
2022/09/28 07:13:01;;;;;;;1.70;1.50;;;10.90;99.90;;;;;;5089313;28;20173;-72
2022/09/28 07:15:30;;;;;;;2.65;1.40;;;10.90;99.90;;;;;;5093817;28;20196;-74
2022/09/28 07:18:04;;;;;;;1.73;1.60;;;10.90;99.90;;;;;;5109490;28;20192;-73
2022/09/28 07:20:32;;;;;;;2.38;1.45;;;10.90;99.90;;;;;;5092691;28;20204;-74
2022/09/28 07:22:59;;;;;;;2.35;1.70;;;11.00;99.90;;;;;;5080741;28;20255;-73
2022/09/28 07:25:28;;;;;;;2.03;1.48;;;11.00;99.90;;;;;;5080810;28;20238;-73
2022/09/28 07:27:56;;;;;;;1.60;1.30;;;11.10;99.90;;;;;;5105960;28;20171;-74
2022/09/28 07:30:25;;;;;;;2.28;1.45;;;11.10;99.90;;;;;;5100280;28;20274;-73
2022/09/28 07:32:54;;;;;;;1.73;1.40;;;11.10;99.90;;;;;;5074914;28;20239;-73
2022/09/28 07:35:19;;;;;;;10.75;1.73;;;11.20;99.90;;;;;;5086309;28;20263;-73
2022/09/28 07:37:47;;;;;;;2.33;1.13;;;11.20;99.90;;;;;;5083261;28;20228;-73
2022/09/28 07:43:09;;;;;;;3.38;2.47;;;11.20;99.90;;;;;;5084946;28;20207;-73
2022/09/28 07:45:37;;;;;;;2.63;2.03;;;11.30;99.90;;;;;;5106249;28;20181;-73
2022/09/28 07:48:05;;;;;;;2.95;1.73;;;11.30;99.90;;;;;;5099638;28;20164;-67
2022/09/28 07:50:31;;;;;;;1.95;1.40;;;11.40;99.90;;;;;;5103792;28;20177;-73
2022/09/28 07:52:59;;;;;;;2.20;1.85;;;11.40;99.90;;;;;;5092719;28;20190;-73
2022/09/28 07:55:25;;;;;;;2.83;1.50;;;11.40;99.90;;;;;;5094425;28;20219;-72
2022/09/28 07:58:00;;;;;;;2.53;1.52;;;11.50;99.90;;;;;;5084792;28;20274;-72
2022/09/28 08:00:31;;;;;;;2.83;1.40;;;11.50;99.90;;;;;;5079967;28;20222;-74
2022/09/28 08:03:03;;;;;;;2.33;1.20;;;11.60;99.90;;;;;;5094673;28;20172;-73
2022/09/28 08:05:34;;;;;;;1.77;1.35;;;11.60;99.90;;;;;;5084415;28;20373;-73
2022/09/28 08:08:02;;;;;;;2.30;1.48;;;11.70;99.90;;;;;;5098340;28;20298;-73
2022/09/28 08:10:28;;;;;;;1.88;1.38;;;11.70;99.90;;;;;;5096820;28;20442;-74
2022/09/28 08:12:55;;;;;;;2.83;1.20;;;11.70;99.90;;;;;;5097169;28;20180;-73
2022/09/28 08:15:21;;;;;;;1.58;1.15;;;11.80;99.90;;;;;;5098085;28;20176;-72
2022/09/28 08:17:47;;;;;;;1.42;1.10;;;11.80;99.90;;;;;;5082442;28;20197;-73
2022/09/28 08:23:07;;;;;;;1.55;1.30;;;11.90;99.90;;;;;;5093659;28;20310;-73
2022/09/28 08:25:35;;;;;;;1.10;1.00;;;12.00;99.90;;;;;;5075994;28;20168;-74
2022/09/28 08:28:05;;;;;;;1.30;1.20;;;12.00;99.90;;;;;;5079718;28;20184;-73
2022/09/28 08:30:31;;;;;;;1.95;1.20;;;12.10;99.90;;;;;;5094552;28;20224;-73
2022/09/28 08:32:57;;;;;;;2.53;1.13;;;12.10;99.90;;;;;;5100887;28;20171;-72
2022/09/28 08:35:24;;;;;;;2.03;1.05;;;12.10;99.90;;;;;;5097829;28;20203;-74
2022/09/28 08:37:53;;;;;;;1.05;0.90;;;12.20;99.90;;;;;;5087284;28;20173;-74
2022/09/28 08:40:24;;;;;;;1.75;0.90;;;12.20;99.90;;;;;;5076754;28;20236;-71
2022/09/28 08:43:01;;;;;;;1.08;0.90;;;12.20;99.90;;;;;;5111030;28;20180;-72
2022/09/28 08:45:29;;;;;;;1.30;0.90;;;12.20;99.90;;;;;;5088744;28;20202;-68
2022/09/28 08:51:09;;;;;;;2.10;0.90;;;12.20;99.90;;;;;;5101875;28;20211;-73
2022/09/28 08:53:46;;;;;;;1.25;0.70;;;12.20;99.90;;;;;;5100729;28;20252;-71
2022/09/28 08:56:26;;;;;;;1.83;0.80;;;12.30;99.90;;;;;;5100107;28;20207;-71
2022/09/28 08:58:59;;;;;;;1.67;0.80;;;12.40;99.90;;;;;;5097807;28;20199;-69
2022/09/28 09:01:36;;;;;;;2.17;1.00;;;12.40;99.90;;;;;;5084128;28;20223;-73
2022/09/28 09:04:04;;;;;;;2.25;1.10;;;12.50;99.90;;;;;;5107135;28;20256;-70
2022/09/28 09:06:33;;;;;;;1.00;0.90;;;12.50;99.90;;;;;;5085390;28;20199;-71
2022/09/28 09:09:10;;;;;;;1.00;0.70;;;12.60;99.90;;;;;;5106038;28;20168;-73
2022/09/28 09:11:45;;;;;;;1.27;0.88;;;12.60;99.90;;;;;;5103505;28;20187;-72
2022/09/28 09:14:10;;;;;;;2.08;0.80;;;12.70;99.90;;;;;;5086891;28;20182;-73
2022/09/28 09:16:54;;;;;;;1.23;0.80;;;12.80;99.90;;;;;;5084492;28;20198;-72
2022/09/28 09:19:44;;;;;;;0.85;0.60;;;12.90;99.90;;;;;;5093323;28;20174;-71
2022/09/28 09:22:41;;;;;;;0.57;0.52;;;13.00;99.90;;;;;;5100705;28;20179;-71
2022/09/28 09:25:21;;;;;;;1.33;0.57;;;13.10;99.90;;;;;;5041936;28;20210;-72
2022/09/28 09:28:16;;;;;;;1.45;0.80;;;13.30;99.90;;;;;;5095960;28;20182;-72
2022/09/28 09:31:02;;;;;;;1.15;0.80;;;13.50;99.90;;;;;;5096398;28;20179;-72
2022/09/28 09:33:52;;;;;;;1.00;0.70;;;13.70;99.90;;;;;;5100364;28;20248;-72
2022/09/28 09:36:24;;;;;;;0.65;0.50;;;13.80;99.90;;;;;;5096691;28;20267;-72
2022/09/28 09:39:07;;;;;;;1.98;0.68;;;14.00;99.90;;;;;;5105156;28;20226;-73
2022/09/28 09:41:53;;;;;;;3.55;1.00;;;14.30;99.90;;;;;;5105476;28;20187;-71
2022/09/28 09:44:45;;;;;;;2.42;0.80;;;14.50;99.90;;;;;;5100179;28;20267;-71
2022/09/28 09:47:19;;;;;;;0.93;0.50;;;14.50;99.90;;;;;;5093928;28;20176;-71
2022/09/28 09:49:47;;;;;;;1.25;0.70;;;14.50;99.90;;;;;;5102361;28;20565;-71
2022/09/28 09:52:25;;;;;;;1.60;0.80;;;14.50;99.90;;;;;;5097597;28;20294;-71
2022/09/28 09:54:59;;;;;;;2.42;0.90;;;14.50;99.90;;;;;;5099675;28;20179;-72
2022/09/28 09:57:33;;;;;;;1.05;0.52;;;14.50;99.90;;;;;;5101087;28;20210;-71
2022/09/28 10:00:05;;;;;;;1.92;0.80;;;14.50;99.90;;;;;;5100639;28;20227;-69
2022/09/28 10:02:33;;;;;;;1.08;0.43;;;14.60;99.90;;;;;;5094589;28;20214;-72
2022/09/28 10:05:11;;;;;;;1.52;0.63;;;14.70;99.90;;;;;;5085345;28;20198;-70
2022/09/28 10:08:07;;;;;;;1.70;0.60;;;14.80;99.90;;;;;;5088720;28;20254;-72
2022/09/28 10:10:37;;;;;;;2.13;0.60;;;14.80;99.90;;;;;;5080378;28;20169;-71
2022/09/28 10:13:05;;;;;;;1.10;0.57;;;14.80;99.90;;;;;;5084915;28;20176;-70
2022/09/28 10:15:36;;;;;;;1.75;0.77;;;14.80;99.90;;;;;;5083067;28;20183;-72
2022/09/28 10:18:10;;;;;;;1.25;0.70;;;14.80;99.90;;;;;;5092652;28;20191;-71
2022/09/28 10:20:38;;;;;;;0.88;0.60;;;14.80;99.90;;;;;;5098724;28;20249;-70
2022/09/28 10:23:24;;;;;;;0.60;0.55;;;14.80;99.90;;;;;;5096379;28;20175;-70
2022/09/28 10:25:53;;;;;;;1.10;0.60;;;14.80;99.90;;;;;;5094480;28;20191;-72
2022/09/28 10:28:31;;;;;;;0.98;0.70;;;14.80;99.90;;;;;;5098072;28;20180;-71
2022/09/28 10:30:57;;;;;;;1.17;0.60;;;14.80;99.90;;;;;;5076157;28;20194;-73
2022/09/28 10:33:31;;;;;;;1.58;0.70;;;14.90;99.90;;;;;;5086752;28;20188;-73
2022/09/28 10:36:07;;;;;;;2.03;0.73;;;14.90;99.90;;;;;;5089536;28;20202;-74
2022/09/28 10:38:34;;;;;;;1.58;0.80;;;15.00;99.90;;;;;;5095227;28;20168;-72
2022/09/28 10:41:10;;;;;;;0.57;0.52;;;15.10;99.90;;;;;;5078624;28;20204;-72
2022/09/28 10:44:07;;;;;;;1.23;0.60;;;15.20;99.90;;;;;;5091059;28;20176;-67
2022/09/28 10:46:34;;;;;;;2.00;0.70;;;15.30;99.90;;;;;;5095925;28;20172;-73
2022/09/28 10:49:03;;;;;;;1.63;0.55;;;15.30;99.90;;;;;;5098100;28;20176;-72
2022/09/28 10:51:48;;;;;;;1.52;0.70;;;15.30;99.90;;;;;;5097159;28;20188;-73
2022/09/28 10:54:20;;;;;;;1.95;0.60;;;15.20;99.90;;;;;;5092260;28;20200;-73
2022/09/28 10:56:49;;;;;;;1.35;0.60;;;15.20;99.90;;;;;;5088710;28;20169;-72
2022/09/28 10:59:39;;;;;;;1.58;0.60;;;15.10;99.90;;;;;;5076030;28;20204;-72
2022/09/28 11:02:27;;;;;;;1.52;0.70;;;15.00;99.90;;;;;;5095913;28;20220;-73
2022/09/28 11:04:59;;;;;;;1.08;0.60;;;15.00;99.90;;;;;;5081893;28;20188;-72
2022/09/28 11:07:29;;;;;;;0.95;0.60;;;15.00;99.90;;;;;;5079024;28;20207;-73
2022/09/28 11:09:57;;;;;;;0.90;0.50;;;15.00;99.90;;;;;;5096602;28;20199;-73
2022/09/28 11:12:41;;;;;;;1.05;0.65;;;15.00;99.90;;;;;;5094485;28;20177;-72
2022/09/28 11:15:23;;;;;;;0.90;0.75;;;15.00;99.90;;;;;;5088556;28;20191;-72
2022/09/28 11:17:51;;;;;;;1.77;0.80;;;15.00;99.90;;;;;;5085313;28;20263;-73
2022/09/28 11:20:23;;;;;;;1.55;0.70;;;14.90;99.90;;;;;;5097330;28;20191;-73
2022/09/28 11:22:56;;;;;;;1.05;0.73;;;14.90;99.90;;;;;;5090905;28;20172;-71
2022/09/28 11:25:26;;;;;;;1.15;0.60;;;14.80;99.90;;;;;;5083209;28;20176;-71
2022/09/28 11:27:51;;;;;;;1.10;0.80;;;14.80;99.90;;;;;;5077574;28;20176;-72
2022/09/28 11:30:26;;;;;;;1.73;0.93;;;14.80;99.90;;;;;;5097506;28;20192;-73
2022/09/28 11:32:59;;;;;;;1.55;0.90;;;15.00;99.90;;;;;;5094320;28;20195;-74
2022/09/28 11:35:45;;;;;;;0.90;0.70;;;15.30;99.90;;;;;;5094394;28;20179;-73
2022/09/28 11:38:16;;;;;;;1.27;1.00;;;15.70;99.90;;;;;;5118053;28;20227;-72
2022/09/28 11:41:15;;;;;;;1.70;1.00;;;16.20;99.90;;;;;;5104486;28;20188;-72
2022/09/28 11:44:02;;;;;;;1.85;0.70;;;16.60;99.90;;;;;;5101504;28;20268;-75
2022/09/28 11:47:07;;;;;;;1.15;0.70;;;16.90;99.90;;;;;;5097362;28;20235;-76
2022/09/28 11:49:44;;;;;;;1.83;0.80;;;17.00;99.90;;;;;;5098797;28;20199;-76
2022/09/28 11:52:29;;;;;;;1.73;0.80;;;16.90;99.90;;;;;;5117244;28;20210;-74
2022/09/28 11:55:07;;;;;;;1.10;0.60;;;16.90;99.90;;;;;;5107653;28;20211;-73
2022/09/28 11:57:44;;;;;;;0.90;0.63;;;16.80;99.90;;;;;;5109192;28;20176;-76
2022/09/28 12:00:19;;;;;;;1.10;0.60;;;16.70;99.90;;;;;;5122867;28;20207;-74
2022/09/28 12:02:54;;;;;;;1.02;0.60;;;16.60;99.90;;;;;;5107206;28;20195;-74
2022/09/28 12:05:22;;;;;;;2.20;0.80;;;16.50;99.90;;;;;;5096150;28;20286;-76
2022/09/28 12:08:03;;;;;;;1.67;0.73;;;16.50;99.90;;;;;;5099374;28;20172;-74
2022/09/28 12:10:34;;;;;;;1.60;0.80;;;16.40;99.90;;;;;;5102248;28;20169;-75
2022/09/28 12:13:04;;;;;;;1.52;0.80;;;16.30;99.90;;;;;;5096176;28;20175;-76
2022/09/28 12:15:49;;;;;;;1.15;0.88;;;16.30;99.90;;;;;;5110904;28;20189;-76
2022/09/28 12:18:43;;;;;;;0.77;0.70;;;16.20;99.90;;;;;;5124137;28;20191;-75
2022/09/28 12:21:15;;;;;;;1.90;0.88;;;16.10;99.90;;;;;;5114582;28;20180;-75
2022/09/28 12:23:45;;;;;;;0.75;0.60;;;16.00;99.90;;;;;;5099580;28;20196;-76
2022/09/28 12:26:52;;;;;;;0.93;0.68;;;15.90;99.90;;;;;;5108447;28;20165;-74
2022/09/28 12:29:24;;;;;;;1.33;0.63;;;15.90;99.90;;;;;;5097666;28;20171;-75
2022/09/28 12:31:56;;;;;;;0.98;0.70;;;15.80;99.90;;;;;;5114199;28;20231;-76
2022/09/28 12:34:22;;;;;;;0.93;0.70;;;15.80;99.90;;;;;;5105527;28;20204;-74
2022/09/28 12:37:16;;;;;;;1.17;0.70;;;15.70;99.90;;;;;;5109728;28;20191;-75
2022/09/28 12:39:48;;;;;;;0.77;0.60;;;15.70;99.90;;;;;;5104986;28;20196;-73
2022/09/28 12:42:41;;;;;;;0.95;0.70;;;15.70;99.90;;;;;;5107960;28;20180;-76
2022/09/28 12:45:44;;;;;;;1.10;0.63;;;15.60;99.90;;;;;;5114806;28;20212;-68
2022/09/28 12:48:44;;;;;;;0.80;0.70;;;15.60;99.90;;;;;;5108071;28;20188;-75
2022/09/28 12:51:35;;;;;;;3.33;0.80;;;15.60;99.90;;;;;;5102080;28;20202;-76
2022/09/28 12:54:27;;;;;;;1.48;0.90;;;15.50;99.90;;;;;;5099761;28;20168;-76
2022/09/28 12:57:03;;;;;;;1.20;0.80;;;15.50;99.90;;;;;;5049941;28;20202;-76
2022/09/28 12:59:40;;;;;;;1.95;0.90;;;15.40;99.90;;;;;;5104464;28;20179;-76
2022/09/28 13:02:27;;;;;;;4.25;0.90;;;15.40;99.90;;;;;;5099328;28;20204;-76
2022/09/28 13:05:33;;;;;;;1.45;0.90;;;15.30;99.90;;;;;;5097531;28;20176;-75
2022/09/28 13:08:20;;;;;;;1.25;0.73;;;15.20;99.90;;;;;;5104399;28;20176;-75
2022/09/28 13:11:19;;;;;;;1.65;1.00;;;15.10;99.90;;;;;;5097489;28;20241;-76
2022/09/28 13:14:21;;;;;;;3.10;0.80;;;15.10;99.90;;;;;;5089689;28;20176;-75
2022/09/28 13:17:05;;;;;;;0.88;0.73;;;15.00;99.90;;;;;;5099845;28;20171;-74
2022/09/28 13:20:03;;;;;;;1.40;0.80;;;15.00;99.90;;;;;;5098010;28;20216;-74
2022/09/28 13:22:59;;;;;;;1.67;0.70;;;15.00;99.90;;;;;;5061102;28;20353;-75
2022/09/28 13:25:33;;;;;;;0.75;0.65;;;15.00;99.90;;;;;;5101412;28;20187;-74
2022/09/28 13:28:06;;;;;;;2.28;0.90;;;15.00;99.90;;;;;;5082858;28;20180;-75
2022/09/28 13:30:37;;;;;;;1.75;0.80;;;15.10;99.90;;;;;;5087276;28;20199;-76
2022/09/28 13:33:06;;;;;;;2.25;0.98;;;15.10;99.90;;;;;;5098400;28;20260;-77
2022/09/28 13:35:32;;;;;;;1.02;0.80;;;15.10;99.90;;;;;;5079662;28;20169;-76